sensor_id;sensor_type;location;lat;lon;timestamp;P1;durP1;ratioP1;P2;durP2;ratioP2
7471;SDS011;3777;48.722;8.110;2024-03-29T00:00:36;1.77;;;1.30;;
7471;SDS011;3777;48.722;8.110;2024-03-29T00:03:03;2.03;;;1.30;;
7471;SDS011;3777;48.722;8.110;2024-03-29T00:05:29;1.93;;;1.40;;
7471;SDS011;3777;48.722;8.110;2024-03-29T00:07:55;2.43;;;1.20;;
7471;SDS011;3777;48.722;8.110;2024-03-29T00:10:21;3.53;;;1.40;;
7471;SDS011;3777;48.722;8.110;2024-03-29T00:12:47;2.20;;;1.20;;
7471;SDS011;3777;48.722;8.110;2024-03-29T00:15:15;1.37;;;1.20;;
7471;SDS011;3777;48.722;8.110;2024-03-29T00:17:41;2.43;;;1.20;;
7471;SDS011;3777;48.722;8.110;2024-03-29T00:20:07;2.07;;;1.20;;
7471;SDS011;3777;48.722;8.110;2024-03-29T00:22:34;1.60;;;1.20;;
7471;SDS011;3777;48.722;8.110;2024-03-29T00:25:00;1.23;;;1.13;;
7471;SDS011;3777;48.722;8.110;2024-03-29T00:27:27;1.60;;;1.10;;
7471;SDS011;3777;48.722;8.110;2024-03-29T00:29:53;2.07;;;1.20;;
7471;SDS011;3777;48.722;8.110;2024-03-29T00:32:21;3.13;;;1.30;;
7471;SDS011;3777;48.722;8.110;2024-03-29T00:34:49;1.20;;;1.10;;
7471;SDS011;3777;48.722;8.110;2024-03-29T00:37:16;2.83;;;1.20;;
7471;SDS011;3777;48.722;8.110;2024-03-29T00:39:42;1.43;;;1.20;;
7471;SDS011;3777;48.722;8.110;2024-03-29T00:42:08;1.63;;;1.20;;
7471;SDS011;3777;48.722;8.110;2024-03-29T00:44:34;1.50;;;1.30;;
7471;SDS011;3777;48.722;8.110;2024-03-29T00:47:00;2.93;;;1.33;;
7471;SDS011;3777;48.722;8.110;2024-03-29T00:49:31;1.30;;;1.10;;
7471;SDS011;3777;48.722;8.110;2024-03-29T00:51:57;1.10;;;1.00;;
7471;SDS011;3777;48.722;8.110;2024-03-29T00:54:23;1.87;;;1.30;;
7471;SDS011;3777;48.722;8.110;2024-03-29T00:56:49;1.20;;;1.10;;
7471;SDS011;3777;48.722;8.110;2024-03-29T00:59:15;1.93;;;1.10;;
7471;SDS011;3777;48.722;8.110;2024-03-29T01:01:41;2.07;;;1.30;;
7471;SDS011;3777;48.722;8.110;2024-03-29T01:04:07;1.70;;;1.20;;
7471;SDS011;3777;48.722;8.110;2024-03-29T01:06:35;1.53;;;1.23;;
7471;SDS011;3777;48.722;8.110;2024-03-29T01:09:01;3.00;;;2.23;;
7471;SDS011;3777;48.722;8.110;2024-03-29T01:11:27;3.10;;;2.10;;
7471;SDS011;3777;48.722;8.110;2024-03-29T01:13:53;2.90;;;2.23;;
7471;SDS011;3777;48.722;8.110;2024-03-29T01:16:19;3.43;;;2.40;;
7471;SDS011;3777;48.722;8.110;2024-03-29T01:18:45;4.43;;;2.40;;
7471;SDS011;3777;48.722;8.110;2024-03-29T01:21:11;4.87;;;2.37;;
7471;SDS011;3777;48.722;8.110;2024-03-29T01:23:39;4.40;;;2.30;;
7471;SDS011;3777;48.722;8.110;2024-03-29T01:26:05;4.07;;;2.30;;
7471;SDS011;3777;48.722;8.110;2024-03-29T01:28:32;3.20;;;2.47;;
7471;SDS011;3777;48.722;8.110;2024-03-29T01:30:58;3.30;;;2.40;;
7471;SDS011;3777;48.722;8.110;2024-03-29T01:33:24;4.67;;;2.60;;
7471;SDS011;3777;48.722;8.110;2024-03-29T01:35:50;4.40;;;2.50;;
7471;SDS011;3777;48.722;8.110;2024-03-29T01:38:16;3.40;;;2.40;;
7471;SDS011;3777;48.722;8.110;2024-03-29T01:40:43;4.57;;;2.40;;
7471;SDS011;3777;48.722;8.110;2024-03-29T01:43:09;2.73;;;2.20;;
7471;SDS011;3777;48.722;8.110;2024-03-29T01:45:38;3.83;;;2.40;;
7471;SDS011;3777;48.722;8.110;2024-03-29T01:48:05;4.77;;;2.70;;
7471;SDS011;3777;48.722;8.110;2024-03-29T01:50:33;12.80;;;6.47;;
7471;SDS011;3777;48.722;8.110;2024-03-29T01:53:00;5.83;;;3.67;;
7471;SDS011;3777;48.722;8.110;2024-03-29T01:55:28;3.67;;;2.50;;
7471;SDS011;3777;48.722;8.110;2024-03-29T01:57:56;3.23;;;2.40;;
7471;SDS011;3777;48.722;8.110;2024-03-29T02:00:24;4.37;;;2.43;;
7471;SDS011;3777;48.722;8.110;2024-03-29T02:02:52;4.17;;;2.70;;
7471;SDS011;3777;48.722;8.110;2024-03-29T02:05:19;3.47;;;2.40;;
7471;SDS011;3777;48.722;8.110;2024-03-29T02:07:47;3.60;;;2.93;;
7471;SDS011;3777;48.722;8.110;2024-03-29T02:10:13;3.77;;;2.70;;
7471;SDS011;3777;48.722;8.110;2024-03-29T02:12:41;5.23;;;2.77;;
7471;SDS011;3777;48.722;8.110;2024-03-29T02:15:13;5.00;;;2.77;;
7471;SDS011;3777;48.722;8.110;2024-03-29T02:17:41;3.97;;;2.70;;
7471;SDS011;3777;48.722;8.110;2024-03-29T02:20:09;3.70;;;2.93;;
7471;SDS011;3777;48.722;8.110;2024-03-29T02:22:38;3.47;;;2.73;;
7471;SDS011;3777;48.722;8.110;2024-03-29T02:25:11;3.60;;;2.57;;
7471;SDS011;3777;48.722;8.110;2024-03-29T02:27:39;5.40;;;3.20;;
7471;SDS011;3777;48.722;8.110;2024-03-29T02:30:06;5.70;;;3.10;;
7471;SDS011;3777;48.722;8.110;2024-03-29T02:32:34;3.90;;;3.10;;
7471;SDS011;3777;48.722;8.110;2024-03-29T02:35:01;5.13;;;3.20;;
7471;SDS011;3777;48.722;8.110;2024-03-29T02:37:28;5.13;;;3.00;;
7471;SDS011;3777;48.722;8.110;2024-03-29T02:39:55;4.30;;;2.90;;
7471;SDS011;3777;48.722;8.110;2024-03-29T02:42:23;5.13;;;3.10;;
7471;SDS011;3777;48.722;8.110;2024-03-29T02:44:50;5.50;;;3.10;;
7471;SDS011;3777;48.722;8.110;2024-03-29T02:47:17;4.17;;;2.90;;
7471;SDS011;3777;48.722;8.110;2024-03-29T02:49:44;3.70;;;3.07;;
7471;SDS011;3777;48.722;8.110;2024-03-29T02:52:10;5.50;;;3.60;;
7471;SDS011;3777;48.722;8.110;2024-03-29T02:54:37;6.53;;;3.30;;
7471;SDS011;3777;48.722;8.110;2024-03-29T02:57:03;5.17;;;3.30;;
7471;SDS011;3777;48.722;8.110;2024-03-29T02:59:32;4.67;;;3.63;;
7471;SDS011;3777;48.722;8.110;2024-03-29T03:01:58;4.83;;;3.40;;
7471;SDS011;3777;48.722;8.110;2024-03-29T03:04:25;4.63;;;3.60;;
7471;SDS011;3777;48.722;8.110;2024-03-29T03:06:51;5.10;;;3.60;;
7471;SDS011;3777;48.722;8.110;2024-03-29T03:09:18;7.30;;;3.90;;
7471;SDS011;3777;48.722;8.110;2024-03-29T03:12:03;5.00;;;3.40;;
7471;SDS011;3777;48.722;8.110;2024-03-29T03:14:31;5.40;;;3.43;;
7471;SDS011;3777;48.722;8.110;2024-03-29T03:16:58;5.17;;;3.63;;
7471;SDS011;3777;48.722;8.110;2024-03-29T03:19:24;7.47;;;3.50;;
7471;SDS011;3777;48.722;8.110;2024-03-29T03:21:51;11.13;;;3.70;;
7471;SDS011;3777;48.722;8.110;2024-03-29T03:24:18;4.83;;;3.50;;
7471;SDS011;3777;48.722;8.110;2024-03-29T03:26:44;5.10;;;3.70;;
7471;SDS011;3777;48.722;8.110;2024-03-29T03:29:11;5.10;;;3.53;;
7471;SDS011;3777;48.722;8.110;2024-03-29T03:31:39;5.90;;;3.50;;
7471;SDS011;3777;48.722;8.110;2024-03-29T03:34:05;6.00;;;3.50;;
7471;SDS011;3777;48.722;8.110;2024-03-29T03:36:32;4.53;;;3.57;;
7471;SDS011;3777;48.722;8.110;2024-03-29T03:38:58;3.73;;;3.30;;
7471;SDS011;3777;48.722;8.110;2024-03-29T03:41:25;5.50;;;3.10;;
7471;SDS011;3777;48.722;8.110;2024-03-29T03:43:51;4.30;;;3.10;;
7471;SDS011;3777;48.722;8.110;2024-03-29T03:46:18;5.03;;;3.10;;
7471;SDS011;3777;48.722;8.110;2024-03-29T03:48:45;4.77;;;3.33;;
7471;SDS011;3777;48.722;8.110;2024-03-29T03:51:12;5.70;;;3.20;;
7471;SDS011;3777;48.722;8.110;2024-03-29T03:53:38;4.87;;;3.20;;
7471;SDS011;3777;48.722;8.110;2024-03-29T03:56:05;5.17;;;3.37;;
7471;SDS011;3777;48.722;8.110;2024-03-29T03:58:31;6.20;;;3.40;;
7471;SDS011;3777;48.722;8.110;2024-03-29T04:01:03;4.50;;;3.50;;
7471;SDS011;3777;48.722;8.110;2024-03-29T04:03:29;5.13;;;3.37;;
7471;SDS011;3777;48.722;8.110;2024-03-29T04:05:57;5.17;;;3.00;;
7471;SDS011;3777;48.722;8.110;2024-03-29T04:08:27;5.40;;;3.33;;
7471;SDS011;3777;48.722;8.110;2024-03-29T04:10:54;5.83;;;3.50;;
7471;SDS011;3777;48.722;8.110;2024-03-29T04:13:20;4.17;;;2.97;;
7471;SDS011;3777;48.722;8.110;2024-03-29T04:15:48;5.27;;;3.37;;
7471;SDS011;3777;48.722;8.110;2024-03-29T04:18:14;5.93;;;4.00;;
7471;SDS011;3777;48.722;8.110;2024-03-29T04:20:41;7.90;;;3.50;;
7471;SDS011;3777;48.722;8.110;2024-03-29T04:23:08;5.73;;;3.40;;
7471;SDS011;3777;48.722;8.110;2024-03-29T04:25:35;5.70;;;3.60;;
7471;SDS011;3777;48.722;8.110;2024-03-29T04:28:01;5.73;;;3.30;;
7471;SDS011;3777;48.722;8.110;2024-03-29T04:30:28;4.60;;;3.47;;
7471;SDS011;3777;48.722;8.110;2024-03-29T04:32:54;5.67;;;3.37;;
7471;SDS011;3777;48.722;8.110;2024-03-29T04:35:21;5.87;;;3.80;;
7471;SDS011;3777;48.722;8.110;2024-03-29T04:37:47;4.43;;;3.53;;
7471;SDS011;3777;48.722;8.110;2024-03-29T04:40:15;3.80;;;3.20;;
7471;SDS011;3777;48.722;8.110;2024-03-29T04:42:42;4.23;;;3.53;;
7471;SDS011;3777;48.722;8.110;2024-03-29T04:45:09;6.40;;;3.30;;
7471;SDS011;3777;48.722;8.110;2024-03-29T04:47:36;4.33;;;3.50;;
7471;SDS011;3777;48.722;8.110;2024-03-29T04:50:03;4.93;;;3.30;;
7471;SDS011;3777;48.722;8.110;2024-03-29T04:52:30;6.47;;;3.50;;
7471;SDS011;3777;48.722;8.110;2024-03-29T04:54:57;4.37;;;3.00;;
7471;SDS011;3777;48.722;8.110;2024-03-29T04:57:26;5.60;;;3.10;;
7471;SDS011;3777;48.722;8.110;2024-03-29T04:59:53;3.83;;;3.00;;
7471;SDS011;3777;48.722;8.110;2024-03-29T05:02:20;5.73;;;3.63;;
7471;SDS011;3777;48.722;8.110;2024-03-29T05:04:47;5.07;;;3.60;;
7471;SDS011;3777;48.722;8.110;2024-03-29T05:07:14;3.57;;;3.17;;
7471;SDS011;3777;48.722;8.110;2024-03-29T05:09:40;5.40;;;3.60;;
7471;SDS011;3777;48.722;8.110;2024-03-29T05:12:08;4.40;;;3.33;;
7471;SDS011;3777;48.722;8.110;2024-03-29T05:14:37;5.30;;;3.20;;
7471;SDS011;3777;48.722;8.110;2024-03-29T05:17:04;4.23;;;3.10;;
7471;SDS011;3777;48.722;8.110;2024-03-29T05:19:31;4.77;;;3.40;;
7471;SDS011;3777;48.722;8.110;2024-03-29T05:21:57;6.77;;;3.53;;
7471;SDS011;3777;48.722;8.110;2024-03-29T05:24:25;5.27;;;3.67;;
7471;SDS011;3777;48.722;8.110;2024-03-29T05:26:52;4.70;;;3.60;;
7471;SDS011;3777;48.722;8.110;2024-03-29T05:29:19;8.50;;;3.70;;
7471;SDS011;3777;48.722;8.110;2024-03-29T05:31:48;5.90;;;3.60;;
7471;SDS011;3777;48.722;8.110;2024-03-29T05:34:15;4.77;;;2.90;;
7471;SDS011;3777;48.722;8.110;2024-03-29T05:36:42;3.90;;;3.50;;
7471;SDS011;3777;48.722;8.110;2024-03-29T05:39:09;6.37;;;3.83;;
7471;SDS011;3777;48.722;8.110;2024-03-29T05:41:36;4.20;;;3.37;;
7471;SDS011;3777;48.722;8.110;2024-03-29T05:44:03;7.23;;;3.30;;
7471;SDS011;3777;48.722;8.110;2024-03-29T05:46:30;6.10;;;3.27;;
7471;SDS011;3777;48.722;8.110;2024-03-29T05:48:59;7.03;;;3.83;;
7471;SDS011;3777;48.722;8.110;2024-03-29T05:51:26;5.93;;;3.33;;
7471;SDS011;3777;48.722;8.110;2024-03-29T05:53:53;5.00;;;3.50;;
7471;SDS011;3777;48.722;8.110;2024-03-29T05:56:21;5.83;;;3.83;;
7471;SDS011;3777;48.722;8.110;2024-03-29T05:58:48;4.33;;;3.30;;
7471;SDS011;3777;48.722;8.110;2024-03-29T06:01:15;6.07;;;3.33;;
7471;SDS011;3777;48.722;8.110;2024-03-29T06:03:42;6.57;;;3.93;;
7471;SDS011;3777;48.722;8.110;2024-03-29T06:06:10;5.27;;;3.40;;
7471;SDS011;3777;48.722;8.110;2024-03-29T06:08:42;5.97;;;3.87;;
7471;SDS011;3777;48.722;8.110;2024-03-29T06:11:09;6.47;;;3.40;;
7471;SDS011;3777;48.722;8.110;2024-03-29T06:13:37;3.80;;;3.40;;
7471;SDS011;3777;48.722;8.110;2024-03-29T06:16:17;5.43;;;3.57;;
7471;SDS011;3777;48.722;8.110;2024-03-29T06:19:02;5.33;;;3.43;;
7471;SDS011;3777;48.722;8.110;2024-03-29T06:21:31;4.27;;;3.37;;
7471;SDS011;3777;48.722;8.110;2024-03-29T06:24:03;5.87;;;3.57;;
7471;SDS011;3777;48.722;8.110;2024-03-29T06:26:31;4.07;;;3.20;;
7471;SDS011;3777;48.722;8.110;2024-03-29T06:28:58;4.70;;;3.40;;
7471;SDS011;3777;48.722;8.110;2024-03-29T06:31:25;6.53;;;3.50;;
7471;SDS011;3777;48.722;8.110;2024-03-29T06:33:52;3.77;;;3.30;;
7471;SDS011;3777;48.722;8.110;2024-03-29T06:36:20;6.43;;;3.87;;
7471;SDS011;3777;48.722;8.110;2024-03-29T06:38:49;8.43;;;3.70;;
7471;SDS011;3777;48.722;8.110;2024-03-29T06:41:16;5.37;;;3.40;;
7471;SDS011;3777;48.722;8.110;2024-03-29T06:43:43;6.17;;;3.33;;
7471;SDS011;3777;48.722;8.110;2024-03-29T06:46:10;4.43;;;3.50;;
7471;SDS011;3777;48.722;8.110;2024-03-29T06:48:37;5.80;;;3.53;;
7471;SDS011;3777;48.722;8.110;2024-03-29T06:51:04;6.83;;;3.70;;
7471;SDS011;3777;48.722;8.110;2024-03-29T06:53:31;5.73;;;3.40;;
7471;SDS011;3777;48.722;8.110;2024-03-29T06:56:00;5.57;;;3.40;;
7471;SDS011;3777;48.722;8.110;2024-03-29T06:58:27;5.40;;;3.53;;
7471;SDS011;3777;48.722;8.110;2024-03-29T07:00:54;12.80;;;3.73;;
7471;SDS011;3777;48.722;8.110;2024-03-29T07:03:23;4.37;;;3.30;;
7471;SDS011;3777;48.722;8.110;2024-03-29T07:05:50;4.57;;;3.37;;
7471;SDS011;3777;48.722;8.110;2024-03-29T07:08:17;8.13;;;4.37;;
7471;SDS011;3777;48.722;8.110;2024-03-29T07:10:44;4.20;;;3.30;;
7471;SDS011;3777;48.722;8.110;2024-03-29T07:13:13;4.97;;;3.67;;
7471;SDS011;3777;48.722;8.110;2024-03-29T07:15:39;6.90;;;3.90;;
7471;SDS011;3777;48.722;8.110;2024-03-29T07:18:06;4.97;;;4.27;;
7471;SDS011;3777;48.722;8.110;2024-03-29T07:20:33;7.00;;;3.97;;
7471;SDS011;3777;48.722;8.110;2024-03-29T07:23:00;5.07;;;4.33;;
7471;SDS011;3777;48.722;8.110;2024-03-29T07:25:27;6.47;;;4.70;;
7471;SDS011;3777;48.722;8.110;2024-03-29T07:27:58;7.07;;;4.83;;
7471;SDS011;3777;48.722;8.110;2024-03-29T07:30:26;7.23;;;4.33;;
7471;SDS011;3777;48.722;8.110;2024-03-29T07:32:53;7.40;;;4.63;;
7471;SDS011;3777;48.722;8.110;2024-03-29T07:35:20;5.80;;;4.27;;
7471;SDS011;3777;48.722;8.110;2024-03-29T07:37:47;6.73;;;4.30;;
7471;SDS011;3777;48.722;8.110;2024-03-29T07:40:16;6.60;;;3.90;;
7471;SDS011;3777;48.722;8.110;2024-03-29T07:42:43;5.87;;;4.37;;
7471;SDS011;3777;48.722;8.110;2024-03-29T07:45:10;6.87;;;4.60;;
7471;SDS011;3777;48.722;8.110;2024-03-29T07:47:38;6.27;;;4.60;;
7471;SDS011;3777;48.722;8.110;2024-03-29T07:50:05;6.93;;;4.20;;
7471;SDS011;3777;48.722;8.110;2024-03-29T07:52:34;6.83;;;4.63;;
7471;SDS011;3777;48.722;8.110;2024-03-29T07:55:01;6.07;;;4.40;;
7471;SDS011;3777;48.722;8.110;2024-03-29T07:57:29;5.03;;;3.70;;
7471;SDS011;3777;48.722;8.110;2024-03-29T07:59:56;6.47;;;3.40;;
7471;SDS011;3777;48.722;8.110;2024-03-29T08:02:26;5.70;;;3.50;;
7471;SDS011;3777;48.722;8.110;2024-03-29T08:04:54;4.63;;;3.33;;
7471;SDS011;3777;48.722;8.110;2024-03-29T08:07:21;4.17;;;3.30;;
7471;SDS011;3777;48.722;8.110;2024-03-29T08:09:49;4.47;;;3.27;;
7471;SDS011;3777;48.722;8.110;2024-03-29T08:12:16;5.50;;;3.87;;
7471;SDS011;3777;48.722;8.110;2024-03-29T08:14:43;7.90;;;5.40;;
7471;SDS011;3777;48.722;8.110;2024-03-29T08:17:11;7.53;;;6.03;;
7471;SDS011;3777;48.722;8.110;2024-03-29T08:19:39;10.60;;;7.30;;
7471;SDS011;3777;48.722;8.110;2024-03-29T08:22:08;7.13;;;5.93;;
7471;SDS011;3777;48.722;8.110;2024-03-29T08:24:35;9.00;;;6.37;;
7471;SDS011;3777;48.722;8.110;2024-03-29T08:27:02;10.20;;;7.63;;
7471;SDS011;3777;48.722;8.110;2024-03-29T08:29:29;11.50;;;7.27;;
7471;SDS011;3777;48.722;8.110;2024-03-29T08:31:56;6.80;;;5.57;;
7471;SDS011;3777;48.722;8.110;2024-03-29T08:34:23;6.93;;;4.77;;
7471;SDS011;3777;48.722;8.110;2024-03-29T08:36:53;6.50;;;5.10;;
7471;SDS011;3777;48.722;8.110;2024-03-29T08:39:22;5.40;;;3.83;;
7471;SDS011;3777;48.722;8.110;2024-03-29T08:41:49;4.20;;;3.37;;
7471;SDS011;3777;48.722;8.110;2024-03-29T08:44:16;4.03;;;3.23;;
7471;SDS011;3777;48.722;8.110;2024-03-29T08:46:43;3.40;;;2.80;;
7471;SDS011;3777;48.722;8.110;2024-03-29T08:49:10;3.70;;;2.50;;
7471;SDS011;3777;48.722;8.110;2024-03-29T08:51:37;4.53;;;2.60;;
7471;SDS011;3777;48.722;8.110;2024-03-29T08:54:04;2.80;;;2.27;;
7471;SDS011;3777;48.722;8.110;2024-03-29T08:56:32;2.40;;;2.10;;
7471;SDS011;3777;48.722;8.110;2024-03-29T08:59:02;4.13;;;2.10;;
7471;SDS011;3777;48.722;8.110;2024-03-29T09:01:32;3.13;;;2.00;;
7471;SDS011;3777;48.722;8.110;2024-03-29T09:04:00;2.90;;;2.50;;
7471;SDS011;3777;48.722;8.110;2024-03-29T09:06:32;3.00;;;1.80;;
7471;SDS011;3777;48.722;8.110;2024-03-29T09:08:59;2.87;;;1.80;;
7471;SDS011;3777;48.722;8.110;2024-03-29T09:11:26;3.27;;;1.90;;
7471;SDS011;3777;48.722;8.110;2024-03-29T09:13:54;2.90;;;2.00;;
7471;SDS011;3777;48.722;8.110;2024-03-29T09:16:23;3.10;;;1.70;;
7471;SDS011;3777;48.722;8.110;2024-03-29T09:18:50;2.07;;;1.63;;
7471;SDS011;3777;48.722;8.110;2024-03-29T09:21:18;2.00;;;1.60;;
7471;SDS011;3777;48.722;8.110;2024-03-29T09:23:45;3.37;;;2.53;;
7471;SDS011;3777;48.722;8.110;2024-03-29T09:26:13;4.33;;;2.70;;
7471;SDS011;3777;48.722;8.110;2024-03-29T09:28:41;2.80;;;2.00;;
7471;SDS011;3777;48.722;8.110;2024-03-29T09:31:09;2.80;;;1.90;;
7471;SDS011;3777;48.722;8.110;2024-03-29T09:33:36;2.80;;;1.50;;
7471;SDS011;3777;48.722;8.110;2024-03-29T09:36:03;3.00;;;1.80;;
7471;SDS011;3777;48.722;8.110;2024-03-29T09:38:31;3.97;;;2.53;;
7471;SDS011;3777;48.722;8.110;2024-03-29T09:41:00;2.53;;;2.30;;
7471;SDS011;3777;48.722;8.110;2024-03-29T09:43:36;2.57;;;2.30;;
7471;SDS011;3777;48.722;8.110;2024-03-29T09:46:06;2.97;;;2.00;;
7471;SDS011;3777;48.722;8.110;2024-03-29T09:48:36;2.77;;;1.97;;
7471;SDS011;3777;48.722;8.110;2024-03-29T09:51:04;2.83;;;1.90;;
7471;SDS011;3777;48.722;8.110;2024-03-29T09:53:32;2.57;;;1.90;;
7471;SDS011;3777;48.722;8.110;2024-03-29T09:56:01;4.90;;;2.20;;
7471;SDS011;3777;48.722;8.110;2024-03-29T09:58:29;3.47;;;2.37;;
7471;SDS011;3777;48.722;8.110;2024-03-29T10:00:56;2.13;;;2.03;;
7471;SDS011;3777;48.722;8.110;2024-03-29T10:03:25;2.33;;;1.90;;
7471;SDS011;3777;48.722;8.110;2024-03-29T10:05:55;3.27;;;2.13;;
7471;SDS011;3777;48.722;8.110;2024-03-29T10:08:23;3.73;;;2.40;;
7471;SDS011;3777;48.722;8.110;2024-03-29T10:10:52;3.53;;;2.40;;
7471;SDS011;3777;48.722;8.110;2024-03-29T10:13:20;3.70;;;2.17;;
7471;SDS011;3777;48.722;8.110;2024-03-29T10:15:48;4.70;;;2.30;;
7471;SDS011;3777;48.722;8.110;2024-03-29T10:18:17;5.00;;;2.30;;
7471;SDS011;3777;48.722;8.110;2024-03-29T10:20:46;4.83;;;2.80;;
7471;SDS011;3777;48.722;8.110;2024-03-29T10:23:13;4.80;;;3.37;;
7471;SDS011;3777;48.722;8.110;2024-03-29T10:25:42;3.60;;;2.40;;
7471;SDS011;3777;48.722;8.110;2024-03-29T10:28:09;4.83;;;2.30;;
7471;SDS011;3777;48.722;8.110;2024-03-29T10:30:37;3.77;;;3.37;;
7471;SDS011;3777;48.722;8.110;2024-03-29T10:33:05;2.67;;;2.30;;
7471;SDS011;3777;48.722;8.110;2024-03-29T10:35:32;4.60;;;2.10;;
7471;SDS011;3777;48.722;8.110;2024-03-29T10:38:03;2.53;;;2.10;;
7471;SDS011;3777;48.722;8.110;2024-03-29T10:40:30;2.60;;;2.30;;
7471;SDS011;3777;48.722;8.110;2024-03-29T10:42:58;3.87;;;2.60;;
7471;SDS011;3777;48.722;8.110;2024-03-29T10:45:29;2.17;;;1.90;;
7471;SDS011;3777;48.722;8.110;2024-03-29T10:47:56;2.10;;;1.70;;
7471;SDS011;3777;48.722;8.110;2024-03-29T10:50:24;3.27;;;1.80;;
7471;SDS011;3777;48.722;8.110;2024-03-29T10:52:55;1.80;;;1.30;;
7471;SDS011;3777;48.722;8.110;2024-03-29T10:55:28;2.00;;;1.50;;
7471;SDS011;3777;48.722;8.110;2024-03-29T10:57:56;2.40;;;1.80;;
7471;SDS011;3777;48.722;8.110;2024-03-29T11:00:24;2.73;;;2.03;;
7471;SDS011;3777;48.722;8.110;2024-03-29T11:02:57;3.73;;;1.90;;
7471;SDS011;3777;48.722;8.110;2024-03-29T11:05:29;1.93;;;1.70;;
7471;SDS011;3777;48.722;8.110;2024-03-29T11:07:58;2.47;;;1.70;;
7471;SDS011;3777;48.722;8.110;2024-03-29T11:10:30;2.27;;;1.93;;
7471;SDS011;3777;48.722;8.110;2024-03-29T11:13:06;2.53;;;2.03;;
7471;SDS011;3777;48.722;8.110;2024-03-29T11:15:40;2.67;;;1.70;;
7471;SDS011;3777;48.722;8.110;2024-03-29T11:18:10;3.47;;;1.60;;
7471;SDS011;3777;48.722;8.110;2024-03-29T11:20:38;2.30;;;1.70;;
7471;SDS011;3777;48.722;8.110;2024-03-29T11:23:06;3.20;;;1.50;;
7471;SDS011;3777;48.722;8.110;2024-03-29T11:25:40;2.27;;;1.60;;
7471;SDS011;3777;48.722;8.110;2024-03-29T11:28:08;2.10;;;1.70;;
7471;SDS011;3777;48.722;8.110;2024-03-29T11:30:41;2.17;;;1.60;;
7471;SDS011;3777;48.722;8.110;2024-03-29T11:35:55;2.37;;;1.70;;
7471;SDS011;3777;48.722;8.110;2024-03-29T11:38:22;2.63;;;1.70;;
7471;SDS011;3777;48.722;8.110;2024-03-29T11:41:05;2.47;;;1.40;;
7471;SDS011;3777;48.722;8.110;2024-03-29T11:43:33;2.80;;;1.93;;
7471;SDS011;3777;48.722;8.110;2024-03-29T11:46:01;2.03;;;1.40;;
7471;SDS011;3777;48.722;8.110;2024-03-29T11:48:30;3.00;;;1.47;;
7471;SDS011;3777;48.722;8.110;2024-03-29T11:50:58;2.20;;;1.30;;
7471;SDS011;3777;48.722;8.110;2024-03-29T11:53:25;2.07;;;1.50;;
7471;SDS011;3777;48.722;8.110;2024-03-29T11:55:54;2.23;;;1.60;;
7471;SDS011;3777;48.722;8.110;2024-03-29T11:58:23;2.53;;;1.50;;
7471;SDS011;3777;48.722;8.110;2024-03-29T12:00:51;2.63;;;1.40;;
7471;SDS011;3777;48.722;8.110;2024-03-29T12:03:19;3.33;;;2.13;;
7471;SDS011;3777;48.722;8.110;2024-03-29T12:05:48;2.20;;;1.63;;
7471;SDS011;3777;48.722;8.110;2024-03-29T12:08:20;2.30;;;1.93;;
7471;SDS011;3777;48.722;8.110;2024-03-29T12:10:47;2.57;;;1.90;;
7471;SDS011;3777;48.722;8.110;2024-03-29T12:13:15;2.77;;;1.90;;
7471;SDS011;3777;48.722;8.110;2024-03-29T12:15:44;1.90;;;1.60;;
7471;SDS011;3777;48.722;8.110;2024-03-29T12:18:11;2.90;;;1.70;;
7471;SDS011;3777;48.722;8.110;2024-03-29T12:20:41;1.70;;;1.57;;
7471;SDS011;3777;48.722;8.110;2024-03-29T12:23:11;1.70;;;1.60;;
7471;SDS011;3777;48.722;8.110;2024-03-29T12:25:39;3.07;;;1.67;;
7471;SDS011;3777;48.722;8.110;2024-03-29T12:28:06;2.20;;;1.40;;
7471;SDS011;3777;48.722;8.110;2024-03-29T12:30:33;1.80;;;1.50;;
7471;SDS011;3777;48.722;8.110;2024-03-29T12:33:03;3.63;;;1.60;;
7471;SDS011;3777;48.722;8.110;2024-03-29T12:35:31;2.67;;;1.60;;
7471;SDS011;3777;48.722;8.110;2024-03-29T12:37:59;2.80;;;1.83;;
7471;SDS011;3777;48.722;8.110;2024-03-29T12:40:29;3.00;;;1.77;;
7471;SDS011;3777;48.722;8.110;2024-03-29T12:43:01;4.57;;;2.10;;
7471;SDS011;3777;48.722;8.110;2024-03-29T12:45:29;3.30;;;2.00;;
7471;SDS011;3777;48.722;8.110;2024-03-29T12:47:56;2.20;;;1.97;;
7471;SDS011;3777;48.722;8.110;2024-03-29T12:50:26;4.50;;;2.40;;
7471;SDS011;3777;48.722;8.110;2024-03-29T12:52:54;3.77;;;2.50;;
7471;SDS011;3777;48.722;8.110;2024-03-29T12:55:23;2.70;;;2.07;;
7471;SDS011;3777;48.722;8.110;2024-03-29T12:57:53;4.50;;;1.90;;
7471;SDS011;3777;48.722;8.110;2024-03-29T13:00:20;2.73;;;2.30;;
7471;SDS011;3777;48.722;8.110;2024-03-29T13:02:47;6.40;;;2.30;;
7471;SDS011;3777;48.722;8.110;2024-03-29T13:05:15;6.03;;;3.07;;
7471;SDS011;3777;48.722;8.110;2024-03-29T13:07:43;5.07;;;3.10;;
7471;SDS011;3777;48.722;8.110;2024-03-29T13:10:10;3.50;;;2.53;;
7471;SDS011;3777;48.722;8.110;2024-03-29T13:12:40;3.47;;;2.30;;
7471;SDS011;3777;48.722;8.110;2024-03-29T13:15:15;5.20;;;2.23;;
7471;SDS011;3777;48.722;8.110;2024-03-29T13:17:44;4.83;;;2.67;;
7471;SDS011;3777;48.722;8.110;2024-03-29T13:20:12;3.30;;;2.50;;
7471;SDS011;3777;48.722;8.110;2024-03-29T13:22:41;5.70;;;2.10;;
7471;SDS011;3777;48.722;8.110;2024-03-29T13:25:11;4.07;;;2.47;;
7471;SDS011;3777;48.722;8.110;2024-03-29T13:27:39;4.27;;;2.50;;
7471;SDS011;3777;48.722;8.110;2024-03-29T13:30:07;3.27;;;2.20;;
7471;SDS011;3777;48.722;8.110;2024-03-29T13:32:35;4.40;;;2.50;;
7471;SDS011;3777;48.722;8.110;2024-03-29T13:35:03;6.10;;;2.40;;
7471;SDS011;3777;48.722;8.110;2024-03-29T13:37:31;3.27;;;2.30;;
7471;SDS011;3777;48.722;8.110;2024-03-29T13:39:58;3.00;;;2.50;;
7471;SDS011;3777;48.722;8.110;2024-03-29T13:42:26;3.23;;;2.50;;
7471;SDS011;3777;48.722;8.110;2024-03-29T13:44:53;2.97;;;2.53;;
7471;SDS011;3777;48.722;8.110;2024-03-29T13:47:20;4.77;;;2.60;;
7471;SDS011;3777;48.722;8.110;2024-03-29T13:49:47;4.20;;;2.47;;
7471;SDS011;3777;48.722;8.110;2024-03-29T13:52:17;3.40;;;2.40;;
7471;SDS011;3777;48.722;8.110;2024-03-29T13:54:44;3.97;;;2.60;;
7471;SDS011;3777;48.722;8.110;2024-03-29T13:57:12;3.90;;;2.70;;
7471;SDS011;3777;48.722;8.110;2024-03-29T13:59:40;4.43;;;2.90;;
7471;SDS011;3777;48.722;8.110;2024-03-29T14:02:09;3.23;;;2.37;;
7471;SDS011;3777;48.722;8.110;2024-03-29T14:04:36;4.80;;;2.50;;
7471;SDS011;3777;48.722;8.110;2024-03-29T14:07:03;3.60;;;2.50;;
7471;SDS011;3777;48.722;8.110;2024-03-29T14:09:32;4.33;;;2.40;;
7471;SDS011;3777;48.722;8.110;2024-03-29T14:12:00;4.90;;;2.90;;
7471;SDS011;3777;48.722;8.110;2024-03-29T14:14:28;4.53;;;3.33;;
7471;SDS011;3777;48.722;8.110;2024-03-29T14:16:56;5.17;;;3.63;;
7471;SDS011;3777;48.722;8.110;2024-03-29T14:19:23;5.77;;;3.00;;
7471;SDS011;3777;48.722;8.110;2024-03-29T14:21:51;5.60;;;3.10;;
7471;SDS011;3777;48.722;8.110;2024-03-29T14:24:18;5.13;;;2.80;;
7471;SDS011;3777;48.722;8.110;2024-03-29T14:26:45;4.27;;;3.10;;
7471;SDS011;3777;48.722;8.110;2024-03-29T14:29:12;5.30;;;3.10;;
7471;SDS011;3777;48.722;8.110;2024-03-29T14:31:41;4.83;;;3.03;;
7471;SDS011;3777;48.722;8.110;2024-03-29T14:34:11;3.57;;;2.80;;
7471;SDS011;3777;48.722;8.110;2024-03-29T14:36:38;3.03;;;2.70;;
7471;SDS011;3777;48.722;8.110;2024-03-29T14:39:06;4.77;;;2.97;;
7471;SDS011;3777;48.722;8.110;2024-03-29T14:41:33;5.10;;;3.03;;
7471;SDS011;3777;48.722;8.110;2024-03-29T14:44:01;3.63;;;2.50;;
7471;SDS011;3777;48.722;8.110;2024-03-29T14:46:29;3.38;;;2.30;;
7471;SDS011;3777;48.722;8.110;2024-03-29T14:48:56;4.23;;;2.30;;
7471;SDS011;3777;48.722;8.110;2024-03-29T14:51:24;5.77;;;2.43;;
7471;SDS011;3777;48.722;8.110;2024-03-29T14:53:53;3.17;;;2.30;;
7471;SDS011;3777;48.722;8.110;2024-03-29T14:56:20;4.83;;;2.30;;
7471;SDS011;3777;48.722;8.110;2024-03-29T14:58:47;7.53;;;4.50;;
7471;SDS011;3777;48.722;8.110;2024-03-29T15:01:14;2.53;;;2.10;;
7471;SDS011;3777;48.722;8.110;2024-03-29T15:03:41;3.93;;;2.30;;
7471;SDS011;3777;48.722;8.110;2024-03-29T15:06:08;2.77;;;2.23;;
7471;SDS011;3777;48.722;8.110;2024-03-29T15:08:36;3.70;;;2.17;;
7471;SDS011;3777;48.722;8.110;2024-03-29T15:11:03;5.23;;;2.40;;
7471;SDS011;3777;48.722;8.110;2024-03-29T15:13:32;4.43;;;2.33;;
7471;SDS011;3777;48.722;8.110;2024-03-29T15:15:59;5.27;;;2.47;;
7471;SDS011;3777;48.722;8.110;2024-03-29T15:18:26;3.33;;;2.67;;
7471;SDS011;3777;48.722;8.110;2024-03-29T15:20:54;4.40;;;2.93;;